sensor_id;sensor_type;location;lat;lon;timestamp;pressure;altitude;pressure_sealevel;temperature;humidity
69751;BME280;57335;52.288;6.056;2023-06-14T00:00:55;101582.66;;;16.14;61.41
69751;BME280;57335;52.288;6.056;2023-06-14T00:03:21;101577.00;;;16.10;62.16
69751;BME280;57335;52.288;6.056;2023-06-14T00:05:48;101576.19;;;16.10;61.74
69751;BME280;57335;52.288;6.056;2023-06-14T00:08:14;101570.53;;;16.06;61.93
69751;BME280;57335;52.288;6.056;2023-06-14T00:10:41;101574.09;;;16.00;61.15
69751;BME280;57335;52.288;6.056;2023-06-14T00:13:09;101575.56;;;15.96;62.00
69751;BME280;57335;52.288;6.056;2023-06-14T00:15:35;101570.59;;;15.88;61.78
69751;BME280;57335;52.288;6.056;2023-06-14T00:18:03;101572.88;;;15.84;62.20
69751;BME280;57335;52.288;6.056;2023-06-14T00:20:31;101572.50;;;15.81;62.88
69751;BME280;57335;52.288;6.056;2023-06-14T00:23:01;101573.75;;;15.78;61.87
69751;BME280;57335;52.288;6.056;2023-06-14T00:25:27;101582.94;;;15.75;62.47
69751;BME280;57335;52.288;6.056;2023-06-14T00:27:57;101586.03;;;15.72;62.11
69751;BME280;57335;52.288;6.056;2023-06-14T00:30:25;101585.84;;;15.67;61.94
69751;BME280;57335;52.288;6.056;2023-06-14T00:32:51;101587.09;;;15.65;62.70
69751;BME280;57335;52.288;6.056;2023-06-14T00:35:18;101594.31;;;15.58;62.48
69751;BME280;57335;52.288;6.056;2023-06-14T00:37:45;101594.72;;;15.54;62.55
69751;BME280;57335;52.288;6.056;2023-06-14T00:40:11;101583.78;;;15.51;62.61
69751;BME280;57335;52.288;6.056;2023-06-14T00:42:38;101581.03;;;15.46;63.15
69751;BME280;57335;52.288;6.056;2023-06-14T00:45:05;101587.31;;;15.45;62.42
69751;BME280;57335;52.288;6.056;2023-06-14T00:47:32;101584.28;;;15.41;62.97
69751;BME280;57335;52.288;6.056;2023-06-14T00:49:58;101591.63;;;15.39;62.44
69751;BME280;57335;52.288;6.056;2023-06-14T00:52:26;101590.91;;;15.32;63.57
69751;BME280;57335;52.288;6.056;2023-06-14T00:54:53;101587.09;;;15.28;63.08
69751;BME280;57335;52.288;6.056;2023-06-14T00:57:19;101589.34;;;15.24;63.15
69751;BME280;57335;52.288;6.056;2023-06-14T00:59:48;101584.50;;;15.21;62.84
69751;BME280;57335;52.288;6.056;2023-06-14T01:02:15;101579.66;;;15.18;63.89
69751;BME280;57335;52.288;6.056;2023-06-14T01:04:43;101582.16;;;15.13;63.30
69751;BME280;57335;52.288;6.056;2023-06-14T01:07:33;101586.84;;;15.11;63.81
69751;BME280;57335;52.288;6.056;2023-06-14T01:10:25;101591.16;;;15.05;63.95
69751;BME280;57335;52.288;6.056;2023-06-14T01:13:13;101592.84;;;15.00;64.43
69751;BME280;57335;52.288;6.056;2023-06-14T01:15:43;101588.84;;;14.90;63.97
69751;BME280;57335;52.288;6.056;2023-06-14T01:18:10;101590.09;;;14.88;64.54
69751;BME280;57335;52.288;6.056;2023-06-14T01:20:37;101586.03;;;14.85;63.98
69751;BME280;57335;52.288;6.056;2023-06-14T01:23:03;101584.28;;;14.79;64.50
69751;BME280;57335;52.288;6.056;2023-06-14T01:25:30;101583.31;;;14.73;64.53
69751;BME280;57335;52.288;6.056;2023-06-14T01:28:03;101584.53;;;14.71;66.02
69751;BME280;57335;52.288;6.056;2023-06-14T01:30:31;101587.03;;;14.66;65.13
69751;BME280;57335;52.288;6.056;2023-06-14T01:32:58;101586.84;;;14.61;66.07
69751;BME280;57335;52.288;6.056;2023-06-14T01:35:25;101584.66;;;14.58;66.05
69751;BME280;57335;52.288;6.056;2023-06-14T01:37:52;101587.88;;;14.53;66.05
69751;BME280;57335;52.288;6.056;2023-06-14T01:40:20;101590.75;;;14.51;66.37
69751;BME280;57335;52.288;6.056;2023-06-14T01:42:49;101590.97;;;14.50;65.88
69751;BME280;57335;52.288;6.056;2023-06-14T01:45:17;101593.00;;;14.48;65.92
69751;BME280;57335;52.288;6.056;2023-06-14T01:47:44;101588.34;;;14.43;66.05
69751;BME280;57335;52.288;6.056;2023-06-14T01:50:11;101585.13;;;14.41;66.03
69751;BME280;57335;52.288;6.056;2023-06-14T01:52:38;101590.41;;;14.41;65.57
69751;BME280;57335;52.288;6.056;2023-06-14T01:55:05;101588.00;;;14.40;65.43
69751;BME280;57335;52.288;6.056;2023-06-14T01:57:32;101596.31;;;14.36;65.32
69751;BME280;57335;52.288;6.056;2023-06-14T01:59:58;101594.91;;;14.34;65.50
69751;BME280;57335;52.288;6.056;2023-06-14T02:02:25;101591.09;;;14.30;65.98
69751;BME280;57335;52.288;6.056;2023-06-14T02:04:51;101593.34;;;14.26;66.40
69751;BME280;57335;52.288;6.056;2023-06-14T02:07:18;101590.75;;;14.20;65.96
69751;BME280;57335;52.288;6.056;2023-06-14T02:09:44;101595.44;;;14.18;65.93
69751;BME280;57335;52.288;6.056;2023-06-14T02:12:11;101591.81;;;14.12;66.08
69751;BME280;57335;52.288;6.056;2023-06-14T02:14:37;101594.63;;;14.10;66.71
69751;BME280;57335;52.288;6.056;2023-06-14T02:17:04;101590.00;;;14.06;66.75
69751;BME280;57335;52.288;6.056;2023-06-14T02:19:30;101585.38;;;14.01;67.11
69751;BME280;57335;52.288;6.056;2023-06-14T02:21:57;101585.19;;;13.96;67.00
69751;BME280;57335;52.288;6.056;2023-06-14T02:24:23;101585.22;;;13.89;67.29
69751;BME280;57335;52.288;6.056;2023-06-14T02:26:49;101593.34;;;13.88;68.27
69751;BME280;57335;52.288;6.056;2023-06-14T02:29:16;101592.34;;;13.82;67.76
69751;BME280;57335;52.288;6.056;2023-06-14T02:31:42;101596.19;;;13.80;68.28
69751;BME280;57335;52.288;6.056;2023-06-14T02:34:09;101601.28;;;13.74;69.30
69751;BME280;57335;52.288;6.056;2023-06-14T02:36:35;101601.72;;;13.71;68.71
69751;BME280;57335;52.288;6.056;2023-06-14T02:39:02;101594.41;;;13.67;68.62
69751;BME280;57335;52.288;6.056;2023-06-14T02:41:28;101597.03;;;13.67;68.69
69751;BME280;57335;52.288;6.056;2023-06-14T02:43:55;101600.09;;;13.64;68.73
69751;BME280;57335;52.288;6.056;2023-06-14T02:46:21;101590.81;;;13.61;69.34
69751;BME280;57335;52.288;6.056;2023-06-14T02:48:48;101595.66;;;13.57;69.52
69751;BME280;57335;52.288;6.056;2023-06-14T02:51:14;101599.31;;;13.56;69.54
69751;BME280;57335;52.288;6.056;2023-06-14T02:53:41;101599.72;;;13.53;68.64
69751;BME280;57335;52.288;6.056;2023-06-14T02:56:07;101601.75;;;13.51;69.29
69751;BME280;57335;52.288;6.056;2023-06-14T02:58:34;101597.94;;;13.47;69.72
69751;BME280;57335;52.288;6.056;2023-06-14T03:01:00;101609.47;;;13.46;70.08
69751;BME280;57335;52.288;6.056;2023-06-14T03:03:26;101608.84;;;13.44;69.34
69751;BME280;57335;52.288;6.056;2023-06-14T03:05:53;101606.06;;;13.39;70.23
69751;BME280;57335;52.288;6.056;2023-06-14T03:08:19;101606.25;;;13.38;69.84
69751;BME280;57335;52.288;6.056;2023-06-14T03:10:46;101608.47;;;13.34;70.74
69751;BME280;57335;52.288;6.056;2023-06-14T03:13:13;101619.00;;;13.34;70.65
69751;BME280;57335;52.288;6.056;2023-06-14T03:15:40;101622.44;;;13.34;69.49
69751;BME280;57335;52.288;6.056;2023-06-14T03:18:09;101621.22;;;13.30;70.24
69751;BME280;57335;52.288;6.056;2023-06-14T03:20:36;101623.88;;;13.30;70.66
69751;BME280;57335;52.288;6.056;2023-06-14T03:23:02;101629.28;;;13.29;70.67
69751;BME280;57335;52.288;6.056;2023-06-14T03:25:29;101635.97;;;13.25;72.48
69751;BME280;57335;52.288;6.056;2023-06-14T03:27:56;101633.34;;;13.25;71.17
69751;BME280;57335;52.288;6.056;2023-06-14T03:30:23;101641.47;;;13.23;71.70
69751;BME280;57335;52.288;6.056;2023-06-14T03:32:49;101636.59;;;13.20;71.77
69751;BME280;57335;52.288;6.056;2023-06-14T03:35:16;101645.09;;;13.22;71.64
69751;BME280;57335;52.288;6.056;2023-06-14T03:37:46;101643.50;;;13.21;71.93
69751;BME280;57335;52.288;6.056;2023-06-14T03:40:14;101643.50;;;13.21;72.76
69751;BME280;57335;52.288;6.056;2023-06-14T03:42:41;101642.47;;;13.22;71.69
69751;BME280;57335;52.288;6.056;2023-06-14T03:45:08;101637.81;;;13.17;71.76
69751;BME280;57335;52.288;6.056;2023-06-14T03:47:34;101645.91;;;13.23;71.81
69751;BME280;57335;52.288;6.056;2023-06-14T03:50:04;101646.13;;;13.21;71.69
69751;BME280;57335;52.288;6.056;2023-06-14T03:52:31;101653.81;;;13.23;71.47
69751;BME280;57335;52.288;6.056;2023-06-14T03:54:58;101653.00;;;13.22;71.81
69751;BME280;57335;52.288;6.056;2023-06-14T03:57:27;101654.41;;;13.25;72.81
69751;BME280;57335;52.288;6.056;2023-06-14T03:59:54;101648.34;;;13.24;74.10
69751;BME280;57335;52.288;6.056;2023-06-14T04:02:20;101659.69;;;13.25;73.87
69751;BME280;57335;52.288;6.056;2023-06-14T04:04:47;101659.69;;;13.25;73.27
69751;BME280;57335;52.288;6.056;2023-06-14T04:07:14;101661.75;;;13.29;74.26
69751;BME280;57335;52.288;6.056;2023-06-14T04:09:42;101665.59;;;13.33;74.51
69751;BME280;57335;52.288;6.056;2023-06-14T04:12:09;101668.63;;;13.37;73.63
69751;BME280;57335;52.288;6.056;2023-06-14T04:14:35;101667.81;;;13.36;74.05
69751;BME280;57335;52.288;6.056;2023-06-14T04:17:02;101674.88;;;13.43;73.63
69751;BME280;57335;52.288;6.056;2023-06-14T04:19:29;101667.59;;;13.45;73.30
69751;BME280;57335;52.288;6.056;2023-06-14T04:21:55;101682.56;;;13.51;74.98
69751;BME280;57335;52.288;6.056;2023-06-14T04:24:22;101679.53;;;13.54;73.44
69751;BME280;57335;52.288;6.056;2023-06-14T04:26:49;101677.13;;;13.59;73.43
69751;BME280;57335;52.288;6.056;2023-06-14T04:29:15;101683.16;;;13.66;73.04
69751;BME280;57335;52.288;6.056;2023-06-14T04:31:42;101677.06;;;13.72;74.72
69751;BME280;57335;52.288;6.056;2023-06-14T04:34:09;101683.16;;;13.80;73.13
69751;BME280;57335;52.288;6.056;2023-06-14T04:36:36;101688.00;;;13.89;73.71
69751;BME280;57335;52.288;6.056;2023-06-14T04:39:03;101687.97;;;13.96;73.16
69751;BME280;57335;52.288;6.056;2023-06-14T04:41:30;101695.03;;;14.02;73.28
69751;BME280;57335;52.288;6.056;2023-06-14T04:43:57;101700.72;;;14.06;74.25
69751;BME280;57335;52.288;6.056;2023-06-14T04:46:24;101703.09;;;14.14;73.49
69751;BME280;57335;52.288;6.056;2023-06-14T04:48:50;101708.34;;;14.21;74.51
69751;BME280;57335;52.288;6.056;2023-06-14T04:51:17;101709.72;;;14.36;74.42
69751;BME280;57335;52.288;6.056;2023-06-14T04:53:43;101707.34;;;14.67;73.03
69751;BME280;57335;52.288;6.056;2023-06-14T04:56:10;101712.59;;;15.30;72.08
69751;BME280;57335;52.288;6.056;2023-06-14T04:58:36;101716.28;;;15.98;69.85
69751;BME280;57335;52.288;6.056;2023-06-14T05:01:02;101709.97;;;16.48;68.47
69751;BME280;57335;52.288;6.056;2023-06-14T05:03:29;101717.16;;;16.89;65.73
69751;BME280;57335;52.288;6.056;2023-06-14T05:05:55;101720.09;;;17.23;65.34
69751;BME280;57335;52.288;6.056;2023-06-14T05:08:22;101725.63;;;17.57;63.86
69751;BME280;57335;52.288;6.056;2023-06-14T05:10:49;101725.41;;;17.94;62.01
69751;BME280;57335;52.288;6.056;2023-06-14T05:13:16;101716.28;;;18.42;61.14
69751;BME280;57335;52.288;6.056;2023-06-14T05:15:42;101729.38;;;19.06;59.97
69751;BME280;57335;52.288;6.056;2023-06-14T05:18:09;101720.69;;;19.84;58.36
69751;BME280;57335;52.288;6.056;2023-06-14T05:20:35;101733.91;;;20.67;55.02
69751;BME280;57335;52.288;6.056;2023-06-14T05:23:02;101728.16;;;21.45;52.94
69751;BME280;57335;52.288;6.056;2023-06-14T05:25:28;101735.41;;;22.13;48.24
69751;BME280;57335;52.288;6.056;2023-06-14T05:27:55;101730.25;;;22.84;49.24
69751;BME280;57335;52.288;6.056;2023-06-14T05:30:21;101729.66;;;23.49;45.43
69751;BME280;57335;52.288;6.056;2023-06-14T05:32:48;101722.50;;;24.15;45.45
69751;BME280;57335;52.288;6.056;2023-06-14T05:35:14;101716.25;;;24.74;44.74
69751;BME280;57335;52.288;6.056;2023-06-14T05:37:41;101728.22;;;25.16;42.83
69751;BME280;57335;52.288;6.056;2023-06-14T05:40:08;101725.72;;;25.54;40.01
69751;BME280;57335;52.288;6.056;2023-06-14T05:42:34;101732.91;;;25.83;38.98
69751;BME280;57335;52.288;6.056;2023-06-14T05:45:01;101733.41;;;26.09;39.85
69751;BME280;57335;52.288;6.056;2023-06-14T05:47:27;101736.97;;;26.42;39.15
69751;BME280;57335;52.288;6.056;2023-06-14T05:49:54;101744.34;;;26.89;38.29
69751;BME280;57335;52.288;6.056;2023-06-14T05:52:21;101748.94;;;27.02;36.40
69751;BME280;57335;52.288;6.056;2023-06-14T05:54:48;101745.72;;;27.19;36.93
69751;BME280;57335;52.288;6.056;2023-06-14T05:57:14;101756.53;;;26.67;36.88
69751;BME280;57335;52.288;6.056;2023-06-14T05:59:41;101749.16;;;26.54;38.08
69751;BME280;57335;52.288;6.056;2023-06-14T06:02:07;101754.56;;;26.35;37.23
69751;BME280;57335;52.288;6.056;2023-06-14T06:04:33;101763.50;;;27.01;37.02
69751;BME280;57335;52.288;6.056;2023-06-14T06:07:00;101764.31;;;27.48;36.00
69751;BME280;57335;52.288;6.056;2023-06-14T06:09:26;101760.81;;;27.34;34.71
69751;BME280;57335;52.288;6.056;2023-06-14T06:11:53;101758.91;;;27.48;35.55
69751;BME280;57335;52.288;6.056;2023-06-14T06:14:19;101756.56;;;27.88;35.70
69751;BME280;57335;52.288;6.056;2023-06-14T06:16:46;101757.78;;;28.18;34.65
69751;BME280;57335;52.288;6.056;2023-06-14T06:19:13;101763.88;;;28.60;34.95
69751;BME280;57335;52.288;6.056;2023-06-14T06:21:39;101758.19;;;28.84;32.94
69751;BME280;57335;52.288;6.056;2023-06-14T06:24:06;101758.44;;;28.97;32.59
69751;BME280;57335;52.288;6.056;2023-06-14T06:26:32;101754.00;;;29.01;31.73
69751;BME280;57335;52.288;6.056;2023-06-14T06:28:59;101764.94;;;28.73;33.00
69751;BME280;57335;52.288;6.056;2023-06-14T06:31:25;101768.91;;;28.17;33.67
69751;BME280;57335;52.288;6.056;2023-06-14T06:33:52;101771.00;;;27.92;33.64
69751;BME280;57335;52.288;6.056;2023-06-14T06:36:18;101775.19;;;27.98;33.45
69751;BME280;57335;52.288;6.056;2023-06-14T06:38:44;101777.69;;;28.09;32.96
69751;BME280;57335;52.288;6.056;2023-06-14T06:41:11;101775.16;;;28.26;32.23
69751;BME280;57335;52.288;6.056;2023-06-14T06:43:37;101782.28;;;27.94;33.18
69751;BME280;57335;52.288;6.056;2023-06-14T06:46:04;101784.31;;;28.02;31.55
69751;BME280;57335;52.288;6.056;2023-06-14T06:48:30;101786.38;;;27.17;33.45
69751;BME280;57335;52.288;6.056;2023-06-14T06:50:57;101780.66;;;27.38;34.45
69751;BME280;57335;52.288;6.056;2023-06-14T06:53:23;101784.38;;;27.83;31.85
69751;BME280;57335;52.288;6.056;2023-06-14T06:56:06;101780.28;;;27.86;32.52
69751;BME280;57335;52.288;6.056;2023-06-14T06:58:33;101785.56;;;27.50;32.44
69751;BME280;57335;52.288;6.056;2023-06-14T07:00:59;101788.78;;;27.93;32.44
69751;BME280;57335;52.288;6.056;2023-06-14T07:03:26;101791.75;;;28.19;32.50
69751;BME280;57335;52.288;6.056;2023-06-14T07:05:52;101788.69;;;27.84;32.19
69751;BME280;57335;52.288;6.056;2023-06-14T07:08:19;101792.16;;;27.57;33.15
69751;BME280;57335;52.288;6.056;2023-06-14T07:10:45;101799.75;;;27.69;33.99
69751;BME280;57335;52.288;6.056;2023-06-14T07:13:12;101791.75;;;27.64;32.62
69751;BME280;57335;52.288;6.056;2023-06-14T07:15:38;101799.25;;;27.81;32.48
69751;BME280;57335;52.288;6.056;2023-06-14T07:18:04;101802.06;;;27.90;32.00
69751;BME280;57335;52.288;6.056;2023-06-14T07:20:31;101813.66;;;27.43;32.46
69751;BME280;57335;52.288;6.056;2023-06-14T07:22:57;101801.50;;;27.46;32.85
69751;BME280;57335;52.288;6.056;2023-06-14T07:25:24;101804.34;;;26.70;34.36
69751;BME280;57335;52.288;6.056;2023-06-14T07:27:50;101812.00;;;27.15;33.14
69751;BME280;57335;52.288;6.056;2023-06-14T07:30:17;101806.69;;;27.56;33.39
69751;BME280;57335;52.288;6.056;2023-06-14T07:32:43;101811.03;;;27.99;32.89
69751;BME280;57335;52.288;6.056;2023-06-14T07:35:10;101814.13;;;28.06;33.30
69751;BME280;57335;52.288;6.056;2023-06-14T07:37:36;101809.91;;;27.72;32.40
69751;BME280;57335;52.288;6.056;2023-06-14T07:40:03;101816.44;;;28.13;31.90
69751;BME280;57335;52.288;6.056;2023-06-14T07:42:30;101810.72;;;28.00;31.90
69751;BME280;57335;52.288;6.056;2023-06-14T07:44:56;101820.56;;;27.63;32.99
69751;BME280;57335;52.288;6.056;2023-06-14T07:47:23;101817.88;;;27.63;33.21
69751;BME280;57335;52.288;6.056;2023-06-14T07:49:49;101822.75;;;27.48;32.38
69751;BME280;57335;52.288;6.056;2023-06-14T07:52:16;101823.97;;;27.22;32.18
69751;BME280;57335;52.288;6.056;2023-06-14T07:54:42;101814.56;;;27.20;31.94
69751;BME280;57335;52.288;6.056;2023-06-14T07:57:09;101815.84;;;27.09;33.14
69751;BME280;57335;52.288;6.056;2023-06-14T07:59:35;101826.56;;;26.76;33.48
69751;BME280;57335;52.288;6.056;2023-06-14T08:02:02;101821.09;;;27.00;32.25
69751;BME280;57335;52.288;6.056;2023-06-14T08:04:28;101820.56;;;26.65;32.98
69751;BME280;57335;52.288;6.056;2023-06-14T08:06:55;101820.19;;;26.72;33.37
69751;BME280;57335;52.288;6.056;2023-06-14T08:09:21;101822.25;;;26.94;33.77
69751;BME280;57335;52.288;6.056;2023-06-14T08:11:48;101829.94;;;27.19;33.52
69751;BME280;57335;52.288;6.056;2023-06-14T08:14:14;101827.88;;;27.30;33.03
69751;BME280;57335;52.288;6.056;2023-06-14T08:16:41;101822.81;;;27.29;32.34
69751;BME280;57335;52.288;6.056;2023-06-14T08:19:07;101824.84;;;27.37;31.98
69751;BME280;57335;52.288;6.056;2023-06-14T08:21:34;101820.28;;;27.18;32.57
69751;BME280;57335;52.288;6.056;2023-06-14T08:24:00;101814.78;;;27.42;32.98
69751;BME280;57335;52.288;6.056;2023-06-14T08:26:27;101810.59;;;27.64;32.94
69751;BME280;57335;52.288;6.056;2023-06-14T08:28:55;101815.09;;;27.69;32.51
69751;BME280;57335;52.288;6.056;2023-06-14T08:31:21;101816.09;;;27.73;32.87
69751;BME280;57335;52.288;6.056;2023-06-14T08:33:48;101808.09;;;27.54;33.37
69751;BME280;57335;52.288;6.056;2023-06-14T08:36:14;101807.13;;;27.77;32.32
69751;BME280;57335;52.288;6.056;2023-06-14T08:38:41;101808.72;;;28.20;32.23
69751;BME280;57335;52.288;6.056;2023-06-14T08:41:07;101809.50;;;28.20;31.08
69751;BME280;57335;52.288;6.056;2023-06-14T08:43:37;101812.75;;;28.09;32.75
69751;BME280;57335;52.288;6.056;2023-06-14T08:46:06;101815.06;;;28.52;30.72
69751;BME280;57335;52.288;6.056;2023-06-14T08:48:32;101812.34;;;28.01;31.90
69751;BME280;57335;52.288;6.056;2023-06-14T08:51:00;101819.09;;;27.85;31.93
69751;BME280;57335;52.288;6.056;2023-06-14T08:53:28;101810.91;;;27.49;31.92
69751;BME280;57335;52.288;6.056;2023-06-14T08:55:54;101809.56;;;27.32;32.87
69751;BME280;57335;52.288;6.056;2023-06-14T08:58:21;101810.69;;;27.45;33.19
69751;BME280;57335;52.288;6.056;2023-06-14T09:00:47;101820.75;;;27.39;32.53
69751;BME280;57335;52.288;6.056;2023-06-14T09:03:14;101810.38;;;27.33;31.14
69751;BME280;57335;52.288;6.056;2023-06-14T09:05:41;101813.53;;;27.02;31.98
69751;BME280;57335;52.288;6.056;2023-06-14T09:08:08;101808.25;;;26.97;32.07
69751;BME280;57335;52.288;6.056;2023-06-14T09:10:35;101808.19;;;27.16;32.64
69751;BME280;57335;52.288;6.056;2023-06-14T09:13:02;101816.25;;;27.35;32.53
69751;BME280;57335;52.288;6.056;2023-06-14T09:15:30;101812.97;;;27.38;31.35
69751;BME280;57335;52.288;6.056;2023-06-14T09:17:56;101811.94;;;27.34;32.95
69751;BME280;57335;52.288;6.056;2023-06-14T09:20:24;101822.94;;;27.37;33.14
69751;BME280;57335;52.288;6.056;2023-06-14T09:22:50;101817.47;;;27.56;33.07
69751;BME280;57335;52.288;6.056;2023-06-14T09:25:17;101807.31;;;27.67;31.80
69751;BME280;57335;52.288;6.056;2023-06-14T09:28:06;101802.34;;;27.88;32.42
69751;BME280;57335;52.288;6.056;2023-06-14T09:30:33;101808.84;;;28.01;30.62
69751;BME280;57335;52.288;6.056;2023-06-14T09:32:59;101815.03;;;28.01;31.41
69751;BME280;57335;52.288;6.056;2023-06-14T09:35:27;101811.25;;;27.89;30.74
69751;BME280;57335;52.288;6.056;2023-06-14T09:37:55;101805.13;;;27.55;29.55
69751;BME280;57335;52.288;6.056;2023-06-14T09:40:21;101812.78;;;27.48;31.86
69751;BME280;57335;52.288;6.056;2023-06-14T09:42:48;101808.50;;;27.47;30.85
69751;BME280;57335;52.288;6.056;2023-06-14T09:45:15;101807.13;;;27.63;31.08
69751;BME280;57335;52.288;6.056;2023-06-14T09:47:43;101812.22;;;27.79;31.65
69751;BME280;57335;52.288;6.056;2023-06-14T09:50:29;101809.13;;;27.85;32.41
69751;BME280;57335;52.288;6.056;2023-06-14T09:52:59;101810.63;;;28.05;32.39
69751;BME280;57335;52.288;6.056;2023-06-14T09:55:30;101826.50;;;28.21;32.14
69751;BME280;57335;52.288;6.056;2023-06-14T09:57:57;101810.34;;;28.07;30.92
69751;BME280;57335;52.288;6.056;2023-06-14T10:00:26;101818.88;;;27.68;31.60
69751;BME280;57335;52.288;6.056;2023-06-14T10:02:54;101822.13;;;27.37;31.36
69751;BME280;57335;52.288;6.056;2023-06-14T10:05:27;101812.88;;;27.43;32.29
69751;BME280;57335;52.288;6.056;2023-06-14T10:08:04;101816.31;;;27.62;31.86
69751;BME280;57335;52.288;6.056;2023-06-14T10:10:31;101804.63;;;27.81;30.91
69751;BME280;57335;52.288;6.056;2023-06-14T10:12:57;101804.63;;;27.81;31.77
69751;BME280;57335;52.288;6.056;2023-06-14T10:15:34;101823.38;;;27.72;29.80
69751;BME280;57335;52.288;6.056;2023-06-14T10:21:00;101821.34;;;27.36;31.86
69751;BME280;57335;52.288;6.056;2023-06-14T10:23:30;101805.31;;;27.45;31.36
69751;BME280;57335;52.288;6.056;2023-06-14T10:25:57;101807.53;;;27.71;32.22
69751;BME280;57335;52.288;6.056;2023-06-14T10:28:24;101802.75;;;27.95;30.73
69751;BME280;57335;52.288;6.056;2023-06-14T10:31:10;101803.25;;;27.97;32.99
69751;BME280;57335;52.288;6.056;2023-06-14T10:33:56;101802.75;;;28.09;31.02
69751;BME280;57335;52.288;6.056;2023-06-14T10:41:35;101800.03;;;27.68;31.05
69751;BME280;57335;52.288;6.056;2023-06-14T10:46:47;101806.91;;;27.60;31.97
69751;BME280;57335;52.288;6.056;2023-06-14T10:49:37;101798.25;;;27.63;29.58
69751;BME280;57335;52.288;6.056;2023-06-14T10:52:03;101807.88;;;27.50;30.79
69751;BME280;57335;52.288;6.056;2023-06-14T10:54:30;101807.69;;;27.33;31.04
69751;BME280;57335;52.288;6.056;2023-06-14T10:56:56;101803.81;;;27.20;31.90
69751;BME280;57335;52.288;6.056;2023-06-14T10:59:24;101795.50;;;27.02;32.74
69751;BME280;57335;52.288;6.056;2023-06-14T11:04:54;101778.28;;;27.17;32.53
69751;BME280;57335;52.288;6.056;2023-06-14T11:07:55;101793.41;;;26.99;32.69
69751;BME280;57335;52.288;6.056;2023-06-14T11:13:00;101801.75;;;26.98;32.32
69751;BME280;57335;52.288;6.056;2023-06-14T11:15:30;101797.19;;;26.98;32.42
69751;BME280;57335;52.288;6.056;2023-06-14T11:17:57;101798.38;;;27.06;32.06
69751;BME280;57335;52.288;6.056;2023-06-14T11:20:29;101805.38;;;27.07;31.21
69751;BME280;57335;52.288;6.056;2023-06-14T11:22:56;101802.97;;;27.05;31.35
69751;BME280;57335;52.288;6.056;2023-06-14T11:25:23;101792.59;;;26.99;31.04
69751;BME280;57335;52.288;6.056;2023-06-14T11:27:50;101798.81;;;27.13;32.55
69751;BME280;57335;52.288;6.056;2023-06-14T11:30:17;101790.53;;;27.29;32.03
69751;BME280;57335;52.288;6.056;2023-06-14T11:32:47;101799.09;;;27.31;32.21
69751;BME280;57335;52.288;6.056;2023-06-14T11:35:15;101782.56;;;27.37;32.13
69751;BME280;57335;52.288;6.056;2023-06-14T11:37:42;101784.16;;;27.52;31.87
69751;BME280;57335;52.288;6.056;2023-06-14T11:40:11;101784.75;;;27.49;32.85
69751;BME280;57335;52.288;6.056;2023-06-14T11:42:41;101795.91;;;27.29;32.07
69751;BME280;57335;52.288;6.056;2023-06-14T11:45:08;101789.34;;;27.35;30.85
69751;BME280;57335;52.288;6.056;2023-06-14T11:47:36;101803.97;;;27.10;31.53
69751;BME280;57335;52.288;6.056;2023-06-14T11:50:05;101809.25;;;27.01;31.99
69751;BME280;57335;52.288;6.056;2023-06-14T11:52:32;101794.22;;;26.62;31.90
69751;BME280;57335;52.288;6.056;2023-06-14T11:54:59;101796.75;;;26.53;32.70
69751;BME280;57335;52.288;6.056;2023-06-14T11:57:25;101794.53;;;26.60;31.95
69751;BME280;57335;52.288;6.056;2023-06-14T11:59:54;101790.25;;;26.59;32.16
69751;BME280;57335;52.288;6.056;2023-06-14T12:02:21;101792.31;;;26.43;32.87
69751;BME280;57335;52.288;6.056;2023-06-14T12:04:50;101794.88;;;26.35;32.32
69751;BME280;57335;52.288;6.056;2023-06-14T12:07:17;101793.47;;;26.18;32.75
69751;BME280;57335;52.288;6.056;2023-06-14T12:12:24;101798.41;;;25.82;33.38
69751;BME280;57335;52.288;6.056;2023-06-14T12:14:51;101796.78;;;25.86;35.14
69751;BME280;57335;52.288;6.056;2023-06-14T12:17:18;101791.84;;;25.69;32.96
69751;BME280;57335;52.288;6.056;2023-06-14T12:19:46;101792.59;;;25.75;33.99
69751;BME280;57335;52.288;6.056;2023-06-14T12:22:13;101787.03;;;25.95;33.75
69751;BME280;57335;52.288;6.056;2023-06-14T12:24:43;101793.00;;;25.87;34.76
69751;BME280;57335;52.288;6.056;2023-06-14T12:27:10;101784.16;;;25.86;34.51
69751;BME280;57335;52.288;6.056;2023-06-14T12:29:37;101789.28;;;25.83;34.05
69751;BME280;57335;52.288;6.056;2023-06-14T12:32:04;101796.19;;;25.89;34.73
69751;BME280;57335;52.288;6.056;2023-06-14T12:34:31;101791.25;;;26.01;33.45
69751;BME280;57335;52.288;6.056;2023-06-14T12:36:57;101799.31;;;26.01;34.68
69751;BME280;57335;52.288;6.056;2023-06-14T12:39:24;101797.47;;;26.21;34.46
69751;BME280;57335;52.288;6.056;2023-06-14T12:41:50;101787.16;;;26.28;32.99
69751;BME280;57335;52.288;6.056;2023-06-14T12:44:16;101786.75;;;26.16;34.40
69751;BME280;57335;52.288;6.056;2023-06-14T12:46:43;101779.06;;;26.09;34.30
69751;BME280;57335;52.288;6.056;2023-06-14T12:49:10;101777.78;;;26.25;35.46
69751;BME280;57335;52.288;6.056;2023-06-14T12:51:38;101793.28;;;26.53;33.65
69751;BME280;57335;52.288;6.056;2023-06-14T12:54:05;101783.13;;;26.69;31.08
69751;BME280;57335;52.288;6.056;2023-06-14T12:56:32;101785.00;;;26.68;32.24
69751;BME280;57335;52.288;6.056;2023-06-14T12:58:58;101792.13;;;26.59;32.83
69751;BME280;57335;52.288;6.056;2023-06-14T13:01:25;101800.25;;;26.35;33.40
69751;BME280;57335;52.288;6.056;2023-06-14T13:03:52;101792.69;;;26.37;33.47
69751;BME280;57335;52.288;6.056;2023-06-14T13:06:20;101794.41;;;26.27;34.75
69751;BME280;57335;52.288;6.056;2023-06-14T13:08:47;101800.97;;;26.40;34.16
69751;BME280;57335;52.288;6.056;2023-06-14T13:11:13;101799.22;;;26.50;33.62